TimeMST,TemperatureF,Dew PointF,Humidity,Sea Level PressureIn,VisibilityMPH,Wind Direction,Wind SpeedMPH,Gust SpeedMPH,PrecipitationIn,Events,Conditions,WindDirDegrees,DateUTC
12:53 AM,33.1,12.9,43,29.89,10.0,East,3.5,-,N/A,,Overcast,90,2012-12-14 07:53:00
1:53 AM,34.0,14.0,44,29.86,10.0,East,8.1,-,N/A,,Overcast,80,2012-12-14 08:53:00
2:53 AM,36.0,19.0,50,29.83,10.0,East,9.2,-,N/A,,Overcast,90,2012-12-14 09:53:00
4:14 AM,35.6,28.4,75,29.83,5.0,ENE,16.1,-,0.00,Snow,Light Snow,60,2012-12-14 11:14:00
4:19 AM,33.8,28.4,81,29.83,1.8,ENE,16.1,-,0.00,Snow,Light Snow,60,2012-12-14 11:19:00
4:27 AM,33.8,30.2,87,29.81,0.8,ENE,16.1,-,0.00,Snow,Light Snow,60,2012-12-14 11:27:00
4:34 AM,32.0,30.2,93,29.81,0.8,ENE,16.1,-,0.01,Snow,Light Snow,60,2012-12-14 11:34:00
4:53 AM,30.9,30.9,100,29.80,0.5,NE,18.4,24.2,0.04,Fog-Snow,Snow,50,2012-12-14 11:53:00
5:27 AM,32.0,30.2,93,29.76,1.0,ENE,17.3,21.9,0.02,Snow,Light Snow,60,2012-12-14 12:27:00
5:36 AM,32.0,30.2,93,29.75,2.0,ENE,13.8,-,0.02,Snow,Light Snow,60,2012-12-14 12:36:00
5:46 AM,32.0,30.2,93,29.75,2.5,ENE,9.2,-,0.03,Snow,Light Snow,60,2012-12-14 12:46:00
5:53 AM,32.0,32.0,100,29.77,1.2,ENE,9.2,-,0.03,Snow,Light Snow,70,2012-12-14 12:53:00
6:06 AM,32.0,32.0,100,29.75,1.5,ENE,10.4,-,0.01,Snow,Light Snow,70,2012-12-14 13:06:00
6:15 AM,32.0,32.0,100,29.74,3.0,East,5.8,-,0.01,Snow,Light Snow,90,2012-12-14 13:15:00
6:24 AM,32.0,32.0,100,29.75,1.8,ENE,6.9,-,0.01,Snow,Light Snow,70,2012-12-14 13:24:00
6:35 AM,32.0,32.0,100,29.75,2.0,East,8.1,-,0.02,Snow,Light Snow,80,2012-12-14 13:35:00
6:53 AM,32.0,32.0,100,29.78,3.0,East,8.1,-,0.02,Snow,Light Snow,80,2012-12-14 13:53:00
7:00 AM,32.0,32.0,100,29.75,4.0,East,5.8,-,0.01,Snow,Light Snow,80,2012-12-14 14:00:00
7:06 AM,32.0,32.0,100,29.75,1.8,East,6.9,-,0.01,Snow,Light Snow,80,2012-12-14 14:06:00
7:09 AM,32.0,32.0,100,29.74,1.2,East,8.1,-,0.01,Snow,Light Snow,90,2012-12-14 14:09:00
7:20 AM,32.0,32.0,100,29.73,1.0,East,8.1,-,0.02,Snow,Light Snow,90,2012-12-14 14:20:00
7:33 AM,32.0,32.0,100,29.73,0.8,East,4.6,-,0.03,Snow,Light Snow,100,2012-12-14 14:33:00
7:45 AM,32.0,32.0,100,29.73,1.2,ENE,5.8,-,0.04,Snow,Light Snow,70,2012-12-14 14:45:00
7:53 AM,32.0,30.9,96,29.75,1.0,ENE,8.1,-,0.04,Snow,Light Snow,70,2012-12-14 14:53:00
8:00 AM,32.0,32.0,100,29.72,0.5,East,6.9,-,0.01,Fog-Snow,Snow,80,2012-12-14 15:00:00
8:13 AM,32.0,32.0,100,29.72,1.5,East,8.1,-,0.01,Snow,Light Snow,90,2012-12-14 15:13:00
8:33 AM,32.0,32.0,100,29.71,3.0,East,8.1,-,0.01,Snow,Light Snow,80,2012-12-14 15:33:00
8:53 AM,32.0,32.0,100,29.75,10.0,East,5.8,-,0.01,,Overcast,100,2012-12-14 15:53:00
9:05 AM,32.0,32.0,100,29.70,10.0,East,5.8,-,N/A,,Overcast,90,2012-12-14 16:05:00
9:21 AM,33.8,32.0,93,29.70,1.8,East,4.6,-,0.01,Snow,Light Snow,80,2012-12-14 16:21:00
9:32 AM,33.8,32.0,93,29.69,1.0,East,3.5,-,0.01,Snow,Light Snow,90,2012-12-14 16:32:00
9:41 AM,33.8,32.0,93,29.69,0.8,ESE,4.6,-,0.02,Snow,Light Snow,110,2012-12-14 16:41:00
9:48 AM,32.0,32.0,100,29.69,0.5,ESE,3.5,-,0.02,Fog-Snow,Snow,110,2012-12-14 16:48:00
9:53 AM,32.0,32.0,100,29.73,0.8,ESE,5.8,-,0.03,Snow,Light Snow,120,2012-12-14 16:53:00
10:04 AM,32.0,32.0,100,29.69,0.5,ESE,3.5,-,0.01,Fog-Snow,Snow,110,2012-12-14 17:04:00
10:11 AM,32.0,32.0,100,29.69,0.2,SE,5.8,-,0.03,Fog-Snow,Heavy Snow,130,2012-12-14 17:11:00
10:34 AM,32.0,32.0,100,29.70,0.5,SE,3.5,-,0.08,Fog-Snow,Snow,140,2012-12-14 17:34:00
10:48 AM,32.0,32.0,100,29.70,1.5,Calm,Calm,-,0.09,Snow,Light Snow,0,2012-12-14 17:48:00
10:53 AM,32.0,32.0,100,29.73,1.2,Calm,Calm,-,0.09,Snow,Light Snow,0,2012-12-14 17:53:00
11:01 AM,33.8,32.0,93,29.70,1.0,Calm,Calm,-,0.00,Snow,Light Snow,0,2012-12-14 18:01:00
11:05 AM,33.8,32.0,93,29.69,2.0,Calm,Calm,-,0.00,Snow,Light Snow,0,2012-12-14 18:05:00
11:14 AM,33.8,32.0,93,29.69,6.0,Calm,Calm,-,0.00,,Overcast,0,2012-12-14 18:14:00
11:35 AM,33.8,32.0,93,29.68,1.8,Calm,Calm,-,0.01,Snow,Light Snow,0,2012-12-14 18:35:00
11:42 AM,33.8,32.0,93,29.68,2.0,Calm,Calm,-,0.01,Snow,Light Snow,0,2012-12-14 18:42:00
11:46 AM,33.8,32.0,93,29.67,3.0,NE,3.5,-,0.01,Snow,Light Snow,40,2012-12-14 18:46:00
11:53 AM,34.0,32.0,92,29.70,7.0,ENE,3.5,-,0.01,Snow,Light Snow,60,2012-12-14 18:53:00
12:15 PM,33.8,33.8,100,29.68,1.8,Calm,Calm,-,0.00,Snow,Light Snow,0,2012-12-14 19:15:00
12:24 PM,33.8,32.0,93,29.66,1.2,Calm,Calm,-,0.01,Snow,Light Snow,0,2012-12-14 19:24:00
12:39 PM,33.8,33.8,100,29.66,1.2,Calm,Calm,-,0.02,Snow,Light Snow,0,2012-12-14 19:39:00
12:41 PM,33.8,33.8,100,29.66,1.5,Calm,Calm,-,0.02,Snow,Light Snow,0,2012-12-14 19:41:00
12:47 PM,33.8,33.8,100,29.67,3.0,South,3.5,-,0.02,Snow,Light Snow,170,2012-12-14 19:47:00
12:53 PM,33.1,32.0,96,29.70,5.0,South,3.5,-,0.02,Snow,Light Snow,190,2012-12-14 19:53:00
1:07 PM,33.8,32.0,93,29.66,2.5,SW,4.6,-,0.00,Snow,Light Snow,220,2012-12-14 20:07:00
1:14 PM,33.8,32.0,93,29.65,1.8,South,4.6,-,0.01,Snow,Light Snow,190,2012-12-14 20:14:00
1:28 PM,33.8,32.0,93,29.65,1.2,Calm,Calm,-,0.02,Snow,Light Snow,0,2012-12-14 20:28:00
1:53 PM,33.1,32.0,96,29.66,1.0,SSW,5.8,-,0.03,Snow,Light Snow,210,2012-12-14 20:53:00
2:02 PM,32.0,32.0,100,29.66,0.5,WSW,12.7,17.3,0.02,Fog-Snow,Snow,240,2012-12-14 21:02:00
2:12 PM,32.0,32.0,100,29.65,1.0,SW,10.4,-,0.03,Snow,Light Snow,230,2012-12-14 21:12:00
2:14 PM,32.0,30.2,93,29.65,2.5,WSW,13.8,17.3,0.03,Snow,Light Snow,250,2012-12-14 21:14:00
2:21 PM,32.0,30.2,93,29.65,3.0,WSW,13.8,-,0.03,Snow,Light Snow,250,2012-12-14 21:21:00
2:29 PM,32.0,30.2,93,29.66,1.8,WSW,12.7,-,0.03,Snow,Light Snow,250,2012-12-14 21:29:00
2:38 PM,32.0,30.2,93,29.66,0.8,WSW,9.2,-,0.03,Snow,Light Snow,250,2012-12-14 21:38:00
2:50 PM,32.0,30.2,93,29.66,0.5,West,17.3,23.0,0.04,Fog-Snow,Snow,260,2012-12-14 21:50:00
2:53 PM,32.0,30.9,96,29.69,0.5,WSW,19.6,25.3,0.04,Fog-Snow,Snow,250,2012-12-14 21:53:00
2:58 PM,30.2,30.2,100,29.68,0.2,WSW,24.2,34.5,0.00,Fog-Snow,Snow,250,2012-12-14 21:58:00
3:42 PM,30.2,30.2,100,29.71,0.5,WSW,26.5,34.5,0.02,Fog-Snow,Snow,250,2012-12-14 22:42:00
3:46 PM,28.4,28.4,100,29.71,0.2,WSW,27.6,34.5,0.02,Fog-Snow,Snow,250,2012-12-14 22:46:00
3:53 PM,28.9,28.9,100,29.75,0.2,WSW,25.3,38.0,0.02,Fog-Snow,Snow,250,2012-12-14 22:53:00
4:02 PM,28.4,28.4,100,29.73,0.5,WSW,24.2,32.2,0.00,Fog-Snow,Snow,250,2012-12-14 23:02:00
4:18 PM,28.4,28.4,100,29.73,0.8,WSW,15.0,24.2,0.00,Snow,Light Snow,250,2012-12-14 23:18:00
4:28 PM,28.4,28.4,100,29.74,1.2,WSW,13.8,-,0.00,Snow,Light Snow,250,2012-12-14 23:28:00
4:36 PM,28.4,28.4,100,29.74,1.5,WSW,13.8,-,0.00,Snow,Light Snow,250,2012-12-14 23:36:00
4:53 PM,28.9,28.0,96,29.81,2.0,WSW,15.0,-,0.00,Snow,Light Snow,250,2012-12-14 23:53:00
5:09 PM,28.4,28.4,100,29.75,3.0,WSW,13.8,-,0.00,Snow,Light Snow,240,2012-12-15 00:09:00
5:18 PM,28.4,28.4,100,29.76,6.0,WSW,13.8,-,0.00,Snow,Light Snow,250,2012-12-15 00:18:00
5:46 PM,28.4,28.4,100,29.77,6.0,WSW,13.8,-,0.00,Snow,Light Snow,240,2012-12-15 00:46:00
5:53 PM,28.9,28.0,96,29.83,4.0,WSW,12.7,-,0.00,Snow,Light Snow,240,2012-12-15 00:53:00
6:53 PM,30.0,27.0,88,29.87,9.0,WSW,15.0,-,0.00,,Overcast,250,2012-12-15 01:53:00
7:53 PM,30.0,28.0,92,29.90,10.0,SW,9.2,-,0.00,,Overcast,230,2012-12-15 02:53:00
8:50 PM,30.2,26.6,86,29.87,10.0,WSW,15.0,-,N/A,,Overcast,250,2012-12-15 03:50:00
8:53 PM,30.0,27.0,88,29.93,10.0,WSW,12.7,-,N/A,,Overcast,250,2012-12-15 03:53:00
9:08 PM,30.2,26.6,86,29.88,10.0,WSW,13.8,-,N/A,,Overcast,250,2012-12-15 04:08:00
9:37 PM,28.4,26.6,93,29.89,10.0,SW,9.2,-,N/A,,Overcast,230,2012-12-15 04:37:00
9:53 PM,28.9,26.1,89,29.96,10.0,SW,12.7,-,N/A,,Overcast,230,2012-12-15 04:53:00
10:53 PM,28.9,25.0,85,29.98,10.0,WSW,12.7,-,N/A,,Overcast,240,2012-12-15 05:53:00
11:40 PM,28.4,26.6,93,29.94,10.0,WSW,9.2,-,N/A,,Overcast,240,2012-12-15 06:40:00
11:53 PM,28.9,26.1,89,29.99,10.0,WSW,6.9,-,N/A,,Overcast,250,2012-12-15 06:53:00